EYKS weather

S. Darius and S. Gir─Śnas Airport
Kaunas, Kaunas County, Lithuania

Public forecast

Using degrees Celsius for public forecast. Weather courtesy of forecast.io.

METAR (pilot weather report)

Closest report is Kaunas International Airport, 8.6 nm (16.0 km) NE. Retrieved 2018/08/20 22:50 UTC (14 minutes ago):

EYKA 202250Z AUTO 26012KT 9999 OVC018/// 19/15 Q1010

TAF (pilot weather forecast)

Forecast is more than 6 hours old.

Closest forecast is Kaunas International Airport, 8.6 nm (16.0 km) NE. Retrieved 2018/08/20 12:33 UTC (11 hours ago):

TAF EYKA 201125Z 2012/2112 23014KT 9000 SCT045 PROB40 TEMPO 2012/2015 SCT030 BECMG 2015/2016 28010KT BKN030 TEMPO 2016/2022 -SHRA BKN012 BKN025 TEMPO 2022/2104 BKN005 TEMPO 2104/2112 BKN020CB